sensor_id;sensor_type;location;lat;lon;timestamp;P1;durP1;ratioP1;P2;durP2;ratioP2
7683;SDS011;3884;48.616;12.872;2023-05-07T00:02:08;4.73;;;4.33;;
7683;SDS011;3884;48.616;12.872;2023-05-07T00:04:35;5.40;;;4.67;;
7683;SDS011;3884;48.616;12.872;2023-05-07T00:07:04;5.33;;;4.83;;
7683;SDS011;3884;48.616;12.872;2023-05-07T00:09:31;4.30;;;4.00;;
7683;SDS011;3884;48.616;12.872;2023-05-07T00:11:58;6.40;;;4.40;;
7683;SDS011;3884;48.616;12.872;2023-05-07T00:14:25;5.37;;;3.43;;
7683;SDS011;3884;48.616;12.872;2023-05-07T00:16:51;3.90;;;3.43;;
7683;SDS011;3884;48.616;12.872;2023-05-07T00:19:20;3.90;;;3.60;;
7683;SDS011;3884;48.616;12.872;2023-05-07T00:21:47;4.10;;;3.77;;
7683;SDS011;3884;48.616;12.872;2023-05-07T00:24:14;4.40;;;4.00;;
7683;SDS011;3884;48.616;12.872;2023-05-07T00:26:40;4.57;;;3.80;;
7683;SDS011;3884;48.616;12.872;2023-05-07T00:29:07;5.10;;;3.93;;
7683;SDS011;3884;48.616;12.872;2023-05-07T00:31:34;5.70;;;4.20;;
7683;SDS011;3884;48.616;12.872;2023-05-07T00:34:01;4.50;;;3.90;;
7683;SDS011;3884;48.616;12.872;2023-05-07T00:36:30;4.53;;;3.63;;
7683;SDS011;3884;48.616;12.872;2023-05-07T00:38:58;5.40;;;3.73;;
7683;SDS011;3884;48.616;12.872;2023-05-07T00:41:28;3.90;;;3.60;;
7683;SDS011;3884;48.616;12.872;2023-05-07T00:43:55;3.70;;;3.50;;
7683;SDS011;3884;48.616;12.872;2023-05-07T00:46:23;3.80;;;3.50;;
7683;SDS011;3884;48.616;12.872;2023-05-07T00:48:50;4.33;;;3.93;;
7683;SDS011;3884;48.616;12.872;2023-05-07T00:51:18;4.20;;;3.80;;
7683;SDS011;3884;48.616;12.872;2023-05-07T00:53:47;4.23;;;3.83;;
7683;SDS011;3884;48.616;12.872;2023-05-07T00:56:14;4.30;;;4.00;;
7683;SDS011;3884;48.616;12.872;2023-05-07T00:58:41;4.30;;;3.87;;
7683;SDS011;3884;48.616;12.872;2023-05-07T01:01:08;4.90;;;4.00;;
7683;SDS011;3884;48.616;12.872;2023-05-07T01:03:35;4.20;;;3.90;;
7683;SDS011;3884;48.616;12.872;2023-05-07T01:06:03;4.60;;;3.50;;
7683;SDS011;3884;48.616;12.872;2023-05-07T01:08:31;4.37;;;3.97;;
7683;SDS011;3884;48.616;12.872;2023-05-07T01:11:01;4.43;;;4.03;;
7683;SDS011;3884;48.616;12.872;2023-05-07T01:13:29;4.40;;;4.10;;
7683;SDS011;3884;48.616;12.872;2023-05-07T01:15:56;5.10;;;4.60;;
7683;SDS011;3884;48.616;12.872;2023-05-07T01:18:23;4.50;;;4.10;;
7683;SDS011;3884;48.616;12.872;2023-05-07T01:20:51;5.43;;;4.93;;
7683;SDS011;3884;48.616;12.872;2023-05-07T01:23:19;5.67;;;5.17;;
7683;SDS011;3884;48.616;12.872;2023-05-07T01:25:50;6.00;;;5.50;;
7683;SDS011;3884;48.616;12.872;2023-05-07T01:28:20;6.40;;;5.80;;
7683;SDS011;3884;48.616;12.872;2023-05-07T01:30:49;6.70;;;5.93;;
7683;SDS011;3884;48.616;12.872;2023-05-07T01:33:20;7.10;;;6.40;;
7683;SDS011;3884;48.616;12.872;2023-05-07T01:35:49;6.40;;;5.80;;
7683;SDS011;3884;48.616;12.872;2023-05-07T01:38:20;5.93;;;5.43;;
7683;SDS011;3884;48.616;12.872;2023-05-07T01:40:48;5.83;;;5.30;;
7683;SDS011;3884;48.616;12.872;2023-05-07T01:43:16;5.50;;;4.87;;
7683;SDS011;3884;48.616;12.872;2023-05-07T01:45:43;5.40;;;4.90;;
7683;SDS011;3884;48.616;12.872;2023-05-07T01:48:11;6.17;;;5.10;;
7683;SDS011;3884;48.616;12.872;2023-05-07T01:50:40;6.00;;;5.50;;
7683;SDS011;3884;48.616;12.872;2023-05-07T01:53:09;6.37;;;5.17;;
7683;SDS011;3884;48.616;12.872;2023-05-07T01:55:37;5.40;;;5.00;;
7683;SDS011;3884;48.616;12.872;2023-05-07T01:58:05;5.80;;;5.30;;
7683;SDS011;3884;48.616;12.872;2023-05-07T02:00:32;5.57;;;5.10;;
7683;SDS011;3884;48.616;12.872;2023-05-07T02:02:59;6.30;;;5.70;;
7683;SDS011;3884;48.616;12.872;2023-05-07T02:05:35;6.20;;;5.70;;
7683;SDS011;3884;48.616;12.872;2023-05-07T02:08:08;6.83;;;5.67;;
7683;SDS011;3884;48.616;12.872;2023-05-07T02:10:35;5.10;;;4.63;;
7683;SDS011;3884;48.616;12.872;2023-05-07T02:13:06;5.10;;;4.70;;
7683;SDS011;3884;48.616;12.872;2023-05-07T02:15:33;6.40;;;5.27;;
7683;SDS011;3884;48.616;12.872;2023-05-07T02:18:02;6.00;;;5.30;;
7683;SDS011;3884;48.616;12.872;2023-05-07T02:20:30;5.17;;;4.70;;
7683;SDS011;3884;48.616;12.872;2023-05-07T02:22:57;5.53;;;5.03;;
7683;SDS011;3884;48.616;12.872;2023-05-07T02:25:26;5.27;;;4.77;;
7683;SDS011;3884;48.616;12.872;2023-05-07T02:27:53;6.30;;;5.63;;
7683;SDS011;3884;48.616;12.872;2023-05-07T02:30:26;9.70;;;8.40;;
7683;SDS011;3884;48.616;12.872;2023-05-07T02:32:55;9.20;;;8.30;;
7683;SDS011;3884;48.616;12.872;2023-05-07T02:35:23;8.07;;;7.00;;
7683;SDS011;3884;48.616;12.872;2023-05-07T02:37:51;6.90;;;6.30;;
7683;SDS011;3884;48.616;12.872;2023-05-07T02:40:18;6.53;;;5.93;;
7683;SDS011;3884;48.616;12.872;2023-05-07T02:42:45;9.37;;;6.20;;
7683;SDS011;3884;48.616;12.872;2023-05-07T02:45:12;6.57;;;5.83;;
7683;SDS011;3884;48.616;12.872;2023-05-07T02:47:42;7.07;;;5.63;;
7683;SDS011;3884;48.616;12.872;2023-05-07T02:50:09;6.87;;;6.10;;
7683;SDS011;3884;48.616;12.872;2023-05-07T02:52:36;6.90;;;6.30;;
7683;SDS011;3884;48.616;12.872;2023-05-07T02:55:04;7.80;;;6.27;;
7683;SDS011;3884;48.616;12.872;2023-05-07T02:57:32;7.40;;;6.70;;
7683;SDS011;3884;48.616;12.872;2023-05-07T02:59:59;6.93;;;6.30;;
7683;SDS011;3884;48.616;12.872;2023-05-07T03:02:36;6.60;;;5.90;;
7683;SDS011;3884;48.616;12.872;2023-05-07T03:05:05;6.37;;;5.77;;
7683;SDS011;3884;48.616;12.872;2023-05-07T03:07:33;7.40;;;6.13;;
7683;SDS011;3884;48.616;12.872;2023-05-07T03:10:00;6.93;;;6.27;;
7683;SDS011;3884;48.616;12.872;2023-05-07T03:12:27;6.77;;;6.07;;
7683;SDS011;3884;48.616;12.872;2023-05-07T03:14:54;6.57;;;5.97;;
7683;SDS011;3884;48.616;12.872;2023-05-07T03:17:21;8.07;;;7.27;;
7683;SDS011;3884;48.616;12.872;2023-05-07T03:19:48;6.67;;;6.00;;
7683;SDS011;3884;48.616;12.872;2023-05-07T03:22:16;6.63;;;6.00;;
7683;SDS011;3884;48.616;12.872;2023-05-07T03:24:43;6.70;;;6.00;;
7683;SDS011;3884;48.616;12.872;2023-05-07T03:27:10;7.67;;;5.90;;
7683;SDS011;3884;48.616;12.872;2023-05-07T03:29:37;7.70;;;6.90;;
7683;SDS011;3884;48.616;12.872;2023-05-07T03:32:04;7.67;;;6.77;;
7683;SDS011;3884;48.616;12.872;2023-05-07T03:34:32;8.20;;;7.10;;
7683;SDS011;3884;48.616;12.872;2023-05-07T03:36:59;8.40;;;7.20;;
7683;SDS011;3884;48.616;12.872;2023-05-07T03:39:27;8.83;;;7.93;;
7683;SDS011;3884;48.616;12.872;2023-05-07T03:41:54;9.87;;;8.53;;
7683;SDS011;3884;48.616;12.872;2023-05-07T03:44:21;8.90;;;7.80;;
7683;SDS011;3884;48.616;12.872;2023-05-07T03:46:49;30.20;;;21.70;;
7683;SDS011;3884;48.616;12.872;2023-05-07T03:49:16;24.30;;;17.93;;
7683;SDS011;3884;48.616;12.872;2023-05-07T03:51:43;10.87;;;8.90;;
7683;SDS011;3884;48.616;12.872;2023-05-07T03:54:10;8.77;;;7.87;;
7683;SDS011;3884;48.616;12.872;2023-05-07T03:56:43;7.40;;;6.70;;
7683;SDS011;3884;48.616;12.872;2023-05-07T03:59:10;10.17;;;8.07;;
7683;SDS011;3884;48.616;12.872;2023-05-07T04:01:38;8.43;;;7.63;;
7683;SDS011;3884;48.616;12.872;2023-05-07T04:04:06;13.57;;;11.13;;
7683;SDS011;3884;48.616;12.872;2023-05-07T04:06:35;14.57;;;11.03;;
7683;SDS011;3884;48.616;12.872;2023-05-07T04:09:02;12.23;;;9.60;;
7683;SDS011;3884;48.616;12.872;2023-05-07T04:11:30;9.17;;;8.13;;
7683;SDS011;3884;48.616;12.872;2023-05-07T04:13:58;12.33;;;8.87;;
7683;SDS011;3884;48.616;12.872;2023-05-07T04:16:25;10.07;;;8.40;;
7683;SDS011;3884;48.616;12.872;2023-05-07T04:18:52;9.40;;;8.43;;
7683;SDS011;3884;48.616;12.872;2023-05-07T04:21:20;11.27;;;9.07;;
7683;SDS011;3884;48.616;12.872;2023-05-07T04:23:49;12.80;;;9.77;;
7683;SDS011;3884;48.616;12.872;2023-05-07T04:26:16;13.43;;;10.33;;
7683;SDS011;3884;48.616;12.872;2023-05-07T04:28:44;12.57;;;10.73;;
7683;SDS011;3884;48.616;12.872;2023-05-07T04:31:13;11.93;;;9.83;;
7683;SDS011;3884;48.616;12.872;2023-05-07T04:33:41;9.83;;;8.83;;
7683;SDS011;3884;48.616;12.872;2023-05-07T04:36:11;10.23;;;8.70;;
7683;SDS011;3884;48.616;12.872;2023-05-07T04:38:48;9.70;;;8.70;;
7683;SDS011;3884;48.616;12.872;2023-05-07T04:41:17;9.40;;;8.50;;
7683;SDS011;3884;48.616;12.872;2023-05-07T04:43:44;9.20;;;8.20;;
7683;SDS011;3884;48.616;12.872;2023-05-07T04:46:15;9.07;;;8.17;;
7683;SDS011;3884;48.616;12.872;2023-05-07T04:48:43;8.60;;;7.70;;
7683;SDS011;3884;48.616;12.872;2023-05-07T04:51:10;8.93;;;8.03;;
7683;SDS011;3884;48.616;12.872;2023-05-07T04:53:38;9.00;;;8.10;;
7683;SDS011;3884;48.616;12.872;2023-05-07T04:56:06;8.80;;;7.93;;
7683;SDS011;3884;48.616;12.872;2023-05-07T04:58:38;9.23;;;7.53;;
7683;SDS011;3884;48.616;12.872;2023-05-07T05:01:06;8.97;;;8.07;;
7683;SDS011;3884;48.616;12.872;2023-05-07T05:03:34;8.23;;;7.43;;
7683;SDS011;3884;48.616;12.872;2023-05-07T05:06:01;8.43;;;7.63;;
7683;SDS011;3884;48.616;12.872;2023-05-07T05:08:32;7.40;;;6.80;;
7683;SDS011;3884;48.616;12.872;2023-05-07T05:11:01;8.00;;;7.30;;
7683;SDS011;3884;48.616;12.872;2023-05-07T05:13:30;8.53;;;7.73;;
7683;SDS011;3884;48.616;12.872;2023-05-07T05:15:57;7.10;;;6.50;;
7683;SDS011;3884;48.616;12.872;2023-05-07T05:18:26;7.33;;;6.40;;
7683;SDS011;3884;48.616;12.872;2023-05-07T05:20:56;6.80;;;6.10;;
7683;SDS011;3884;48.616;12.872;2023-05-07T05:23:22;7.00;;;6.40;;
7683;SDS011;3884;48.616;12.872;2023-05-07T05:25:49;6.97;;;6.30;;
7683;SDS011;3884;48.616;12.872;2023-05-07T05:28:21;6.30;;;5.70;;
7683;SDS011;3884;48.616;12.872;2023-05-07T05:30:48;5.83;;;5.20;;
7683;SDS011;3884;48.616;12.872;2023-05-07T05:33:16;8.30;;;5.60;;
7683;SDS011;3884;48.616;12.872;2023-05-07T05:35:43;6.13;;;5.30;;
7683;SDS011;3884;48.616;12.872;2023-05-07T05:38:13;5.80;;;5.30;;
7683;SDS011;3884;48.616;12.872;2023-05-07T05:40:40;7.67;;;5.60;;
7683;SDS011;3884;48.616;12.872;2023-05-07T05:43:07;5.53;;;5.03;;
7683;SDS011;3884;48.616;12.872;2023-05-07T05:45:36;6.63;;;5.70;;
7683;SDS011;3884;48.616;12.872;2023-05-07T05:48:04;5.20;;;4.80;;
7683;SDS011;3884;48.616;12.872;2023-05-07T05:50:32;5.70;;;5.07;;
7683;SDS011;3884;48.616;12.872;2023-05-07T05:53:01;4.90;;;4.40;;
7683;SDS011;3884;48.616;12.872;2023-05-07T05:55:29;5.37;;;4.80;;
7683;SDS011;3884;48.616;12.872;2023-05-07T05:57:57;5.37;;;4.90;;
7683;SDS011;3884;48.616;12.872;2023-05-07T06:00:25;5.80;;;4.70;;
7683;SDS011;3884;48.616;12.872;2023-05-07T06:03:00;5.27;;;4.77;;
7683;SDS011;3884;48.616;12.872;2023-05-07T06:05:27;6.07;;;4.63;;
7683;SDS011;3884;48.616;12.872;2023-05-07T06:07:55;5.50;;;5.00;;
7683;SDS011;3884;48.616;12.872;2023-05-07T06:10:23;6.77;;;5.03;;
7683;SDS011;3884;48.616;12.872;2023-05-07T06:12:52;4.53;;;4.13;;
7683;SDS011;3884;48.616;12.872;2023-05-07T06:15:20;5.00;;;4.50;;
7683;SDS011;3884;48.616;12.872;2023-05-07T06:17:47;5.90;;;4.90;;
7683;SDS011;3884;48.616;12.872;2023-05-07T06:20:15;5.20;;;4.80;;
7683;SDS011;3884;48.616;12.872;2023-05-07T06:22:43;4.73;;;4.33;;
7683;SDS011;3884;48.616;12.872;2023-05-07T06:25:11;5.57;;;4.70;;
7683;SDS011;3884;48.616;12.872;2023-05-07T06:27:39;4.80;;;4.30;;
7683;SDS011;3884;48.616;12.872;2023-05-07T06:30:07;4.70;;;4.30;;
7683;SDS011;3884;48.616;12.872;2023-05-07T06:32:35;4.80;;;4.40;;
7683;SDS011;3884;48.616;12.872;2023-05-07T06:35:03;5.17;;;4.67;;
7683;SDS011;3884;48.616;12.872;2023-05-07T06:37:33;6.43;;;4.30;;
7683;SDS011;3884;48.616;12.872;2023-05-07T06:40:05;5.47;;;4.40;;
7683;SDS011;3884;48.616;12.872;2023-05-07T06:42:35;4.67;;;4.03;;
7683;SDS011;3884;48.616;12.872;2023-05-07T06:45:24;4.40;;;4.07;;
7683;SDS011;3884;48.616;12.872;2023-05-07T06:47:53;4.90;;;4.00;;
7683;SDS011;3884;48.616;12.872;2023-05-07T06:50:21;4.40;;;4.00;;
7683;SDS011;3884;48.616;12.872;2023-05-07T06:52:50;4.20;;;3.80;;
7683;SDS011;3884;48.616;12.872;2023-05-07T06:55:17;4.00;;;3.70;;
7683;SDS011;3884;48.616;12.872;2023-05-07T06:57:45;4.73;;;3.97;;
7683;SDS011;3884;48.616;12.872;2023-05-07T07:00:13;5.10;;;4.03;;
7683;SDS011;3884;48.616;12.872;2023-05-07T07:02:48;5.63;;;4.37;;
7683;SDS011;3884;48.616;12.872;2023-05-07T07:05:18;4.63;;;4.23;;
7683;SDS011;3884;48.616;12.872;2023-05-07T07:07:45;5.60;;;4.00;;
7683;SDS011;3884;48.616;12.872;2023-05-07T07:10:17;3.97;;;3.67;;
7683;SDS011;3884;48.616;12.872;2023-05-07T07:12:45;4.40;;;4.00;;
7683;SDS011;3884;48.616;12.872;2023-05-07T07:15:12;5.43;;;4.40;;
7683;SDS011;3884;48.616;12.872;2023-05-07T07:17:40;5.00;;;4.50;;
7683;SDS011;3884;48.616;12.872;2023-05-07T07:20:09;5.20;;;4.70;;
7683;SDS011;3884;48.616;12.872;2023-05-07T07:22:37;5.00;;;4.50;;
7683;SDS011;3884;48.616;12.872;2023-05-07T07:25:05;4.63;;;4.23;;
7683;SDS011;3884;48.616;12.872;2023-05-07T07:27:32;4.83;;;4.43;;
7683;SDS011;3884;48.616;12.872;2023-05-07T07:30:00;5.50;;;4.30;;
7683;SDS011;3884;48.616;12.872;2023-05-07T07:32:29;4.80;;;4.40;;
7683;SDS011;3884;48.616;12.872;2023-05-07T07:34:58;6.30;;;4.53;;
7683;SDS011;3884;48.616;12.872;2023-05-07T07:37:27;5.33;;;4.83;;
7683;SDS011;3884;48.616;12.872;2023-05-07T07:39:55;5.10;;;4.60;;
7683;SDS011;3884;48.616;12.872;2023-05-07T07:42:22;5.67;;;4.50;;
7683;SDS011;3884;48.616;12.872;2023-05-07T07:44:49;5.10;;;4.70;;
7683;SDS011;3884;48.616;12.872;2023-05-07T07:47:21;4.43;;;4.03;;
7683;SDS011;3884;48.616;12.872;2023-05-07T07:49:49;6.37;;;4.73;;
7683;SDS011;3884;48.616;12.872;2023-05-07T07:52:17;4.73;;;4.27;;
7683;SDS011;3884;48.616;12.872;2023-05-07T07:54:46;7.80;;;4.70;;
7683;SDS011;3884;48.616;12.872;2023-05-07T07:57:14;5.20;;;4.43;;
7683;SDS011;3884;48.616;12.872;2023-05-07T07:59:40;5.67;;;4.80;;
7683;SDS011;3884;48.616;12.872;2023-05-07T08:02:10;5.00;;;4.50;;
7683;SDS011;3884;48.616;12.872;2023-05-07T08:04:37;5.40;;;4.87;;
7683;SDS011;3884;48.616;12.872;2023-05-07T08:07:06;7.47;;;5.10;;
7683;SDS011;3884;48.616;12.872;2023-05-07T08:09:36;5.10;;;4.60;;
7683;SDS011;3884;48.616;12.872;2023-05-07T08:12:05;6.70;;;4.93;;
7683;SDS011;3884;48.616;12.872;2023-05-07T08:14:33;4.93;;;4.53;;
7683;SDS011;3884;48.616;12.872;2023-05-07T08:17:02;4.90;;;4.50;;
7683;SDS011;3884;48.616;12.872;2023-05-07T08:19:30;5.33;;;4.83;;
7683;SDS011;3884;48.616;12.872;2023-05-07T08:21:58;4.93;;;4.43;;
7683;SDS011;3884;48.616;12.872;2023-05-07T08:24:26;5.30;;;4.50;;
7683;SDS011;3884;48.616;12.872;2023-05-07T08:26:53;6.03;;;4.97;;
7683;SDS011;3884;48.616;12.872;2023-05-07T08:29:22;6.73;;;4.87;;
7683;SDS011;3884;48.616;12.872;2023-05-07T08:31:49;5.10;;;4.60;;
7683;SDS011;3884;48.616;12.872;2023-05-07T08:34:17;5.60;;;5.10;;
7683;SDS011;3884;48.616;12.872;2023-05-07T08:36:46;5.30;;;4.80;;
7683;SDS011;3884;48.616;12.872;2023-05-07T08:39:15;5.20;;;4.70;;
7683;SDS011;3884;48.616;12.872;2023-05-07T08:41:44;5.30;;;4.80;;
7683;SDS011;3884;48.616;12.872;2023-05-07T08:44:13;6.00;;;4.60;;
7683;SDS011;3884;48.616;12.872;2023-05-07T08:46:44;5.50;;;5.00;;
7683;SDS011;3884;48.616;12.872;2023-05-07T08:49:15;5.97;;;5.47;;
7683;SDS011;3884;48.616;12.872;2023-05-07T08:51:43;4.83;;;4.43;;
7683;SDS011;3884;48.616;12.872;2023-05-07T08:54:12;5.80;;;4.67;;
7683;SDS011;3884;48.616;12.872;2023-05-07T08:56:43;4.83;;;4.43;;
7683;SDS011;3884;48.616;12.872;2023-05-07T08:59:10;5.50;;;4.80;;
7683;SDS011;3884;48.616;12.872;2023-05-07T09:01:38;4.60;;;4.20;;
7683;SDS011;3884;48.616;12.872;2023-05-07T09:04:07;5.20;;;4.70;;
7683;SDS011;3884;48.616;12.872;2023-05-07T09:06:35;4.80;;;4.40;;
7683;SDS011;3884;48.616;12.872;2023-05-07T09:09:03;4.73;;;4.33;;
7683;SDS011;3884;48.616;12.872;2023-05-07T09:11:32;5.37;;;4.20;;
7683;SDS011;3884;48.616;12.872;2023-05-07T09:14:00;6.27;;;5.50;;
7683;SDS011;3884;48.616;12.872;2023-05-07T09:16:32;4.97;;;4.57;;
7683;SDS011;3884;48.616;12.872;2023-05-07T09:19:00;4.47;;;4.07;;
7683;SDS011;3884;48.616;12.872;2023-05-07T09:21:28;4.73;;;4.33;;
7683;SDS011;3884;48.616;12.872;2023-05-07T09:23:59;5.17;;;4.70;;
7683;SDS011;3884;48.616;12.872;2023-05-07T09:26:33;4.70;;;4.20;;
7683;SDS011;3884;48.616;12.872;2023-05-07T09:29:01;5.00;;;4.40;;
7683;SDS011;3884;48.616;12.872;2023-05-07T09:31:28;6.80;;;4.60;;
7683;SDS011;3884;48.616;12.872;2023-05-07T09:33:55;6.03;;;5.00;;
7683;SDS011;3884;48.616;12.872;2023-05-07T09:36:26;5.37;;;4.70;;
7683;SDS011;3884;48.616;12.872;2023-05-07T09:38:56;6.17;;;4.97;;
7683;SDS011;3884;48.616;12.872;2023-05-07T09:41:26;5.90;;;4.73;;
7683;SDS011;3884;48.616;12.872;2023-05-07T09:44:13;4.93;;;4.53;;
7683;SDS011;3884;48.616;12.872;2023-05-07T09:46:45;5.43;;;4.70;;
7683;SDS011;3884;48.616;12.872;2023-05-07T09:49:22;5.27;;;4.77;;
7683;SDS011;3884;48.616;12.872;2023-05-07T09:51:58;5.00;;;4.60;;
7683;SDS011;3884;48.616;12.872;2023-05-07T09:54:29;4.90;;;4.50;;
7683;SDS011;3884;48.616;12.872;2023-05-07T09:56:59;5.33;;;4.80;;
7683;SDS011;3884;48.616;12.872;2023-05-07T09:59:29;5.50;;;4.80;;
7683;SDS011;3884;48.616;12.872;2023-05-07T10:02:00;5.17;;;4.67;;
7683;SDS011;3884;48.616;12.872;2023-05-07T10:04:29;5.50;;;4.90;;
7683;SDS011;3884;48.616;12.872;2023-05-07T10:06:59;5.33;;;4.93;;
7683;SDS011;3884;48.616;12.872;2023-05-07T10:09:29;5.00;;;4.60;;
7683;SDS011;3884;48.616;12.872;2023-05-07T10:11:57;5.20;;;4.50;;
7683;SDS011;3884;48.616;12.872;2023-05-07T10:14:25;4.50;;;4.10;;
7683;SDS011;3884;48.616;12.872;2023-05-07T10:16:55;4.60;;;3.50;;
7683;SDS011;3884;48.616;12.872;2023-05-07T10:19:24;3.90;;;3.00;;
7683;SDS011;3884;48.616;12.872;2023-05-07T10:21:54;4.60;;;4.20;;
7683;SDS011;3884;48.616;12.872;2023-05-07T10:24:26;4.80;;;4.17;;
7683;SDS011;3884;48.616;12.872;2023-05-07T10:26:57;4.47;;;4.07;;
7683;SDS011;3884;48.616;12.872;2023-05-07T10:29:30;4.17;;;3.40;;
7683;SDS011;3884;48.616;12.872;2023-05-07T10:32:12;4.33;;;3.30;;
7683;SDS011;3884;48.616;12.872;2023-05-07T10:34:53;4.63;;;3.70;;
7683;SDS011;3884;48.616;12.872;2023-05-07T10:37:22;3.83;;;3.53;;
7683;SDS011;3884;48.616;12.872;2023-05-07T10:39:51;3.73;;;3.43;;
7683;SDS011;3884;48.616;12.872;2023-05-07T10:42:19;4.50;;;3.33;;
7683;SDS011;3884;48.616;12.872;2023-05-07T10:44:50;3.20;;;2.90;;
7683;SDS011;3884;48.616;12.872;2023-05-07T10:47:23;3.33;;;3.03;;
7683;SDS011;3884;48.616;12.872;2023-05-07T10:59:31;2.73;;;2.27;;
7683;SDS011;3884;48.616;12.872;2023-05-07T11:02:19;3.80;;;2.30;;
7683;SDS011;3884;48.616;12.872;2023-05-07T11:07:53;4.03;;;2.23;;
7683;SDS011;3884;48.616;12.872;2023-05-07T11:10:22;4.23;;;2.20;;
7683;SDS011;3884;48.616;12.872;2023-05-07T11:12:58;2.93;;;2.13;;
7683;SDS011;3884;48.616;12.872;2023-05-07T11:15:45;2.73;;;2.30;;
7683;SDS011;3884;48.616;12.872;2023-05-07T11:18:22;2.80;;;2.60;;
7683;SDS011;3884;48.616;12.872;2023-05-07T11:20:54;2.70;;;2.50;;
7683;SDS011;3884;48.616;12.872;2023-05-07T11:23:55;2.40;;;2.20;;
7683;SDS011;3884;48.616;12.872;2023-05-07T11:26:43;2.73;;;2.53;;
7683;SDS011;3884;48.616;12.872;2023-05-07T11:29:15;2.30;;;1.97;;
7683;SDS011;3884;48.616;12.872;2023-05-07T11:31:43;2.13;;;2.00;;
7683;SDS011;3884;48.616;12.872;2023-05-07T11:34:11;2.53;;;1.77;;
7683;SDS011;3884;48.616;12.872;2023-05-07T11:36:42;1.97;;;1.80;;
7683;SDS011;3884;48.616;12.872;2023-05-07T11:39:29;2.47;;;1.93;;
7683;SDS011;3884;48.616;12.872;2023-05-07T11:41:58;2.40;;;2.20;;
7683;SDS011;3884;48.616;12.872;2023-05-07T11:44:40;2.30;;;2.10;;
7683;SDS011;3884;48.616;12.872;2023-05-07T11:47:08;3.07;;;2.67;;
7683;SDS011;3884;48.616;12.872;2023-05-07T11:49:35;3.27;;;2.10;;
7683;SDS011;3884;48.616;12.872;2023-05-07T11:52:03;2.53;;;2.07;;
7683;SDS011;3884;48.616;12.872;2023-05-07T11:54:34;2.33;;;2.13;;
7683;SDS011;3884;48.616;12.872;2023-05-07T11:57:02;4.10;;;2.10;;
7683;SDS011;3884;48.616;12.872;2023-05-07T11:59:31;3.00;;;2.10;;
7683;SDS011;3884;48.616;12.872;2023-05-07T12:02:06;3.53;;;2.00;;
7683;SDS011;3884;48.616;12.872;2023-05-07T12:04:33;2.10;;;1.90;;
7683;SDS011;3884;48.616;12.872;2023-05-07T12:07:00;1.87;;;1.60;;
7683;SDS011;3884;48.616;12.872;2023-05-07T12:09:27;2.80;;;1.87;;
7683;SDS011;3884;48.616;12.872;2023-05-07T12:11:54;2.87;;;2.23;;
7683;SDS011;3884;48.616;12.872;2023-05-07T12:14:21;1.77;;;1.67;;
7683;SDS011;3884;48.616;12.872;2023-05-07T12:16:53;2.00;;;1.80;;
7683;SDS011;3884;48.616;12.872;2023-05-07T12:19:21;3.00;;;1.97;;
7683;SDS011;3884;48.616;12.872;2023-05-07T12:21:49;2.77;;;2.07;;
7683;SDS011;3884;48.616;12.872;2023-05-07T12:24:16;2.63;;;2.20;;
7683;SDS011;3884;48.616;12.872;2023-05-07T12:26:43;2.43;;;1.80;;
7683;SDS011;3884;48.616;12.872;2023-05-07T12:29:10;2.60;;;1.67;;
7683;SDS011;3884;48.616;12.872;2023-05-07T12:31:39;1.90;;;1.50;;
7683;SDS011;3884;48.616;12.872;2023-05-07T12:34:07;3.40;;;1.70;;
7683;SDS011;3884;48.616;12.872;2023-05-07T12:36:38;2.80;;;1.80;;
7683;SDS011;3884;48.616;12.872;2023-05-07T12:39:06;3.10;;;1.90;;
7683;SDS011;3884;48.616;12.872;2023-05-07T12:41:35;1.77;;;1.60;;
7683;SDS011;3884;48.616;12.872;2023-05-07T12:44:18;4.70;;;1.90;;
7683;SDS011;3884;48.616;12.872;2023-05-07T12:46:46;2.03;;;1.70;;
7683;SDS011;3884;48.616;12.872;2023-05-07T12:49:13;2.10;;;1.90;;
7683;SDS011;3884;48.616;12.872;2023-05-07T12:51:41;3.33;;;2.20;;
7683;SDS011;3884;48.616;12.872;2023-05-07T12:54:08;2.07;;;1.70;;
7683;SDS011;3884;48.616;12.872;2023-05-07T12:56:35;2.00;;;1.90;;
7683;SDS011;3884;48.616;12.872;2023-05-07T12:59:02;5.77;;;1.83;;
7683;SDS011;3884;48.616;12.872;2023-05-07T13:01:29;2.50;;;2.30;;
7683;SDS011;3884;48.616;12.872;2023-05-07T13:04:00;2.23;;;2.03;;
7683;SDS011;3884;48.616;12.872;2023-05-07T13:06:27;2.30;;;2.10;;
7683;SDS011;3884;48.616;12.872;2023-05-07T13:08:55;2.20;;;2.00;;
7683;SDS011;3884;48.616;12.872;2023-05-07T13:11:22;4.10;;;2.13;;
7683;SDS011;3884;48.616;12.872;2023-05-07T13:13:49;2.50;;;2.20;;
7683;SDS011;3884;48.616;12.872;2023-05-07T13:16:17;2.60;;;2.40;;
7683;SDS011;3884;48.616;12.872;2023-05-07T13:18:44;2.23;;;2.03;;
7683;SDS011;3884;48.616;12.872;2023-05-07T13:21:11;3.30;;;3.03;;
7683;SDS011;3884;48.616;12.872;2023-05-07T13:23:39;3.10;;;2.90;;
7683;SDS011;3884;48.616;12.872;2023-05-07T13:26:07;4.23;;;3.67;;
7683;SDS011;3884;48.616;12.872;2023-05-07T13:28:35;4.77;;;3.60;;
7683;SDS011;3884;48.616;12.872;2023-05-07T13:31:02;5.00;;;3.60;;
7683;SDS011;3884;48.616;12.872;2023-05-07T13:33:29;4.00;;;3.60;;
7683;SDS011;3884;48.616;12.872;2023-05-07T13:35:55;4.27;;;3.70;;
7683;SDS011;3884;48.616;12.872;2023-05-07T13:38:23;3.90;;;3.60;;
7683;SDS011;3884;48.616;12.872;2023-05-07T13:40:50;3.77;;;3.47;;
7683;SDS011;3884;48.616;12.872;2023-05-07T13:43:18;4.63;;;3.83;;
7683;SDS011;3884;48.616;12.872;2023-05-07T13:45:45;4.70;;;3.70;;
7683;SDS011;3884;48.616;12.872;2023-05-07T13:48:12;3.97;;;3.57;;
7683;SDS011;3884;48.616;12.872;2023-05-07T13:50:39;3.60;;;3.30;;
7683;SDS011;3884;48.616;12.872;2023-05-07T13:53:07;5.00;;;3.67;;
7683;SDS011;3884;48.616;12.872;2023-05-07T13:55:34;3.53;;;3.23;;
7683;SDS011;3884;48.616;12.872;2023-05-07T13:58:01;3.73;;;3.27;;
7683;SDS011;3884;48.616;12.872;2023-05-07T14:00:30;3.50;;;3.20;;
7683;SDS011;3884;48.616;12.872;2023-05-07T14:02:57;3.80;;;3.47;;
7683;SDS011;3884;48.616;12.872;2023-05-07T14:05:23;3.40;;;2.90;;
7683;SDS011;3884;48.616;12.872;2023-05-07T14:07:52;3.87;;;3.57;;
7683;SDS011;3884;48.616;12.872;2023-05-07T14:10:20;3.60;;;3.30;;
7683;SDS011;3884;48.616;12.872;2023-05-07T14:12:47;5.23;;;3.63;;
7683;SDS011;3884;48.616;12.872;2023-05-07T14:15:14;3.70;;;3.40;;
7683;SDS011;3884;48.616;12.872;2023-05-07T14:17:42;4.67;;;2.97;;
7683;SDS011;3884;48.616;12.872;2023-05-07T14:20:10;4.00;;;3.10;;
7683;SDS011;3884;48.616;12.872;2023-05-07T14:22:37;4.83;;;3.67;;
7683;SDS011;3884;48.616;12.872;2023-05-07T14:25:05;4.77;;;3.33;;
7683;SDS011;3884;48.616;12.872;2023-05-07T14:27:32;3.87;;;3.30;;
7683;SDS011;3884;48.616;12.872;2023-05-07T14:29:59;3.73;;;3.40;;
7683;SDS011;3884;48.616;12.872;2023-05-07T14:32:27;3.40;;;3.10;;
7683;SDS011;3884;48.616;12.872;2023-05-07T14:34:55;3.27;;;2.97;;
7683;SDS011;3884;48.616;12.872;2023-05-07T14:37:22;4.03;;;3.00;;
7683;SDS011;3884;48.616;12.872;2023-05-07T14:39:49;3.67;;;3.30;;
7683;SDS011;3884;48.616;12.872;2023-05-07T14:42:16;7.20;;;3.40;;
7683;SDS011;3884;48.616;12.872;2023-05-07T14:44:44;5.37;;;3.53;;
7683;SDS011;3884;48.616;12.872;2023-05-07T14:47:11;3.33;;;3.03;;
7683;SDS011;3884;48.616;12.872;2023-05-07T14:49:38;2.83;;;2.43;;
7683;SDS011;3884;48.616;12.872;2023-05-07T14:52:08;3.20;;;3.00;;
7683;SDS011;3884;48.616;12.872;2023-05-07T14:54:36;3.33;;;2.90;;
7683;SDS011;3884;48.616;12.872;2023-05-07T14:57:04;5.03;;;2.90;;
7683;SDS011;3884;48.616;12.872;2023-05-07T14:59:32;3.27;;;2.97;;
7683;SDS011;3884;48.616;12.872;2023-05-07T15:01:59;3.97;;;2.90;;
7683;SDS011;3884;48.616;12.872;2023-05-07T15:04:26;3.13;;;2.90;;
7683;SDS011;3884;48.616;12.872;2023-05-07T15:06:53;4.00;;;2.70;;
7683;SDS011;3884;48.616;12.872;2023-05-07T15:09:22;3.80;;;2.90;;
7683;SDS011;3884;48.616;12.872;2023-05-07T15:11:49;4.53;;;2.97;;
7683;SDS011;3884;48.616;12.872;2023-05-07T15:14:16;3.97;;;3.20;;
7683;SDS011;3884;48.616;12.872;2023-05-07T15:16:43;3.50;;;3.20;;
7683;SDS011;3884;48.616;12.872;2023-05-07T15:19:10;4.63;;;3.40;;
7683;SDS011;3884;48.616;12.872;2023-05-07T15:21:37;4.07;;;3.60;;
7683;SDS011;3884;48.616;12.872;2023-05-07T15:24:04;3.77;;;3.43;;